Terminal Aerodrome Forecast
Issued by NWS Boston, MA

Home | Current Version | Previous Version | Text Only | Print | Product List | Glossary On
Versions: 1 2 3 4 5 6 7 8 9 10 11 12 13 14 15 16 17 18 19 20 21 22
000
FTUS41 KBOX 230842 AAA
TAFBOS
TAF AMD
KBOS 230842Z 2309/2412 23008KT P6SM FEW150
     FM231500 28009KT P6SM SKC
     FM232000 31011KT P6SM VCTS BKN080CB
     FM240000 34010G20KT P6SM VCSH BKN050
     FM240200 31008KT P6SM BKN070=

USA.gov is the U.S. government's official web portal to all federal, state and local government web resources and services.